Bowen Queen — VGXR — position and weather

sailwx.info

Track history (hours):
 
Tides and Currents Weather Stations Pressure Air Temp Water Temp Dewpoint Dewpoint Depression Visibility Wind Speed Wind Dir Waves Ship Positions

Bowen Queen

Last reported at 2018-Jun-22 15:00 UTC. Time now 2018-Jun-22 15:04 UTC.
Position N 50°38' W 127°01'.

Length 88 m; draft 4 m.

Type: Passenger vessel. MMSI: 316001232.

Date/timePositionNaut miles runAvg speedWind from/ knotsBaromVisibWave heightAir tempDewpointWater temp
2018-Jun-22 15:00N 50°38' W 127°01'4 0.4
2018-Jun-22 05:33N 50°35' W 126°56'010.0
2018-Jun-22 05:30N 50°35' W 126°57'4 7.2
2018-Jun-22 04:57N 50°38' W 127°01'3 6.5
2018-Jun-22 04:27N 50°36' W 127°05'3 6.2
2018-Jun-22 03:56N 50°38' W 127°01'2 1.0
2018-Jun-22 02:20N 50°36' W 127°02'1 2.9
2018-Jun-22 01:59N 50°37' W 127°02'3 3.9
2018-Jun-22 01:10N 50°35' W 126°58'0 0.3
2018-Jun-22 00:42N 50°35' W 126°58'3 4.4
2018-Jun-21 23:57N 50°36' W 127°03'1 1.0
2018-Jun-21 22:36N 50°36' W 127°01'1 0.9
2018-Jun-21 20:52N 50°37' W 127°02'0 0.1
2018-Jun-21 18:11N 50°37' W 127°02'0 0.2
2018-Jun-21 17:41N 50°37' W 127°02'3 3.2
2018-Jun-21 16:44N 50°35' W 126°58'0 0.0
2018-Jun-21 05:21N 50°35' W 126°57'410.2
2018-Jun-21 05:00N 50°38' W 127°01'3 6.0
2018-Jun-21 04:30N 50°36' W 127°05'3 5.9
2018-Jun-21 04:00N 50°38' W 127°01'4 7.1
2018-Jun-21 03:30N 50°35' W 126°57'3 2.8
2018-Jun-21 02:19N 50°36' W 127°02'2 4.8
2018-Jun-21 01:58N 50°38' W 127°01'2 2.9
2018-Jun-21 01:18N 50°36' W 127°02'411.5
2018-Jun-21 01:00N 50°35' W 126°56'2 0.7
2018-Jun-20 22:37N 50°35' W 126°59'1 3.0
2018-Jun-20 22:07N 50°35' W 126°56'4 4.8
2018-Jun-20 21:15N 50°36' W 127°03'2 4.9
2018-Jun-20 20:51N 50°38' W 127°01'2 3.6
2018-Jun-20 20:14N 50°36' W 127°03'414.6
2018-Jun-20 20:00N 50°35' W 126°57'4 3.3
2018-Jun-20 18:48N 50°36' W 127°04'2 3.1
2018-Jun-20 18:13N 50°37' W 127°02'1 2.1
2018-Jun-20 17:35N 50°36' W 127°02'213.7
2018-Jun-20 17:26N 50°35' W 126°59'2 3.5
2018-Jun-20 16:56N 50°35' W 126°56'4 2.3
2018-Jun-20 15:16N 50°36' W 127°02'1 1.2
2018-Jun-20 14:11N 50°36' W 127°04'312.1
2018-Jun-20 13:55N 50°36' W 126°59'1 0.2
2018-Jun-20 05:26N 50°35' W 126°57'4 7.1
2018-Jun-20 04:54N 50°38' W 127°01'3 5.7
2018-Jun-20 04:21N 50°36' W 127°05'3 9.0
2018-Jun-20 04:00N 50°38' W 127°01'4 7.4
2018-Jun-20 03:30N 50°35' W 126°57'4 2.2
2018-Jun-20 01:54N 50°37' W 127°02'2 2.7
2018-Jun-20 01:05N 50°35' W 126°59'111.5
2018-Jun-20 00:59N 50°35' W 126°57'3 2.9
2018-Jun-19 23:49N 50°36' W 127°03'2 3.6
2018-Jun-19 23:22N 50°37' W 127°02'2 2.4
2018-Jun-19 22:29N 50°36' W 126°60'2 5.2
2018-Jun-19 22:01N 50°35' W 126°56'4 3.2
2018-Jun-19 20:45N 50°38' W 127°01'2 4.2
2018-Jun-19 20:23N 50°36' W 127°02'2 2.7
2018-Jun-19 19:38N 50°35' W 126°59'2 3.2
2018-Jun-19 19:06N 50°35' W 126°56'4 4.9
2018-Jun-19 18:15N 50°36' W 127°03'1 0.2
2018-Jun-19 15:07N 50°36' W 127°02'1 7.2
2018-Jun-19 14:56N 50°38' W 127°01'3 2.8
2018-Jun-19 13:47N 50°35' W 126°58'1 4.3
2018-Jun-19 13:30N 50°35' W 126°56'0 0.0
2018-Jun-19 09:43N 50°35' W 126°56'0 0.0
2018-Jun-19 09:01N 50°35' W 126°56'0 0.0
2018-Jun-19 08:49N 50°35' W 126°56'0 0.0
2018-Jun-19 08:19N 50°35' W 126°56'0 0.0
2018-Jun-19 07:55N 50°35' W 126°56'0 0.0
2018-Jun-19 06:01N 50°35' W 126°56'0 0.0
2018-Jun-19 05:49N 50°35' W 126°56'0 0.3
2018-Jun-19 05:27N 50°35' W 126°56'4 8.9
2018-Jun-19 05:01N 50°38' W 127°01'3 4.6
2018-Jun-19 04:19N 50°36' W 127°05'3 9.7
2018-Jun-19 04:00N 50°38' W 127°01'3 6.8
2018-Jun-19 03:30N 50°35' W 126°58'4 3.2
2018-Jun-19 02:23N 50°36' W 127°03'2 5.1
2018-Jun-19 01:58N 50°38' W 127°01'2 2.7
2018-Jun-19 01:08N 50°36' W 126°60'111.0
2018-Jun-19 01:00N 50°35' W 126°57'4 3.3
2018-Jun-18 23:50N 50°36' W 127°04'2 5.1
2018-Jun-18 23:23N 50°38' W 127°01'2 2.4
2018-Jun-18 22:32N 50°36' W 127°01'011.9
2018-Jun-18 22:30N 50°36' W 127°00'3 5.3
2018-Jun-18 22:00N 50°35' W 126°56'4 3.8
2018-Jun-18 20:55N 50°36' W 127°02'3 2.5
2018-Jun-18 19:38N 50°35' W 126°58'1 5.7
2018-Jun-18 19:27N 50°35' W 126°56'3 5.7
2018-Jun-18 18:59N 50°35' W 127°00'2 2.2
2018-Jun-18 18:18N 50°36' W 127°02'2 3.7
2018-Jun-18 17:51N 50°38' W 127°01'2 3.0
2018-Jun-18 17:04N 50°35' W 126°60'114.7
2018-Jun-18 16:59N 50°35' W 126°58'1 1.4
2018-Jun-18 16:30N 50°35' W 126°57'4 2.9
2018-Jun-18 15:11N 50°36' W 127°03'2 5.5
2018-Jun-18 14:50N 50°38' W 127°01'2 3.3
2018-Jun-18 14:08N 50°36' W 127°03'312.1
2018-Jun-18 13:52N 50°35' W 126°59'2 0.2
2018-Jun-18 05:07N 50°37' W 127°01'1 0.9
2018-Jun-18 04:00N 50°38' W 127°01'4 7.1
2018-Jun-18 03:26N 50°35' W 126°56'4 3.5
2018-Jun-18 02:20N 50°36' W 127°02'0 0.3
2018-Jun-18 01:55N 50°36' W 127°02'0 0.2
2018-Jun-17 23:49N 50°36' W 127°03'2 6.0
2018-Jun-17 23:30N 50°38' W 127°01'2 2.4
2018-Jun-17 22:41N 50°36' W 127°01'211.8
2018-Jun-17 22:29N 50°35' W 126°58'1 1.8
2018-Jun-17 21:52N 50°35' W 126°56'5 5.2
2018-Jun-17 20:59N 50°36' W 127°03'0 0.4
2018-Jun-17 19:49N 50°36' W 127°03'1 0.4
2018-Jun-17 18:14N 50°36' W 127°04'210.2
2018-Jun-17 18:00N 50°38' W 127°01'2 1.8
2018-Jun-17 16:49N 50°36' W 127°00'2 0.7
2018-Jun-17 14:25N 50°37' W 127°02'1 2.6
2018-Jun-17 13:59N 50°36' W 127°00'3 3.6
2018-Jun-17 13:08N 50°35' W 126°56'0 0.0
2018-Jun-17 08:09N 50°35' W 126°56'0 0.0
2018-Jun-17 07:57N 50°35' W 126°56'0 0.0
2018-Jun-17 05:57N 50°35' W 126°56'1 2.9
2018-Jun-17 05:29N 50°35' W 126°58'3 6.2
2018-Jun-17 04:59N 50°38' W 127°01'1 1.9
2018-Jun-17 04:13N 50°36' W 127°02'1 2.7
2018-Jun-17 03:53N 50°37' W 127°01'4 6.9
2018-Jun-17 03:19N 50°35' W 126°56'4 4.6
2018-Jun-17 02:24N 50°36' W 127°03'2 4.0
2018-Jun-17 02:00N 50°37' W 127°02'4 0.5
2018-Jun-16 19:28N 50°35' W 126°57'1 1.3
2018-Jun-16 18:59N 50°35' W 126°58'3 3.1
2018-Jun-16 18:06N 50°37' W 127°02'1 1.4
2018-Jun-16 17:40N 50°37' W 127°02'3 3.5
2018-Jun-16 16:52N 50°35' W 126°58'1 1.4
2018-Jun-16 16:23N 50°35' W 126°57'3 2.5
2018-Jun-16 15:10N 50°36' W 127°02'2 1.9
2018-Jun-16 13:52N 50°35' W 126°58'1 0.2
2018-Jun-16 05:29N 50°35' W 126°56'4 6.4
2018-Jun-16 04:52N 50°38' W 127°01'3 5.9
2018-Jun-16 04:21N 50°36' W 127°05'3 9.2
2018-Jun-16 04:00N 50°38' W 127°01'4 4.7
2018-Jun-16 03:12N 50°35' W 126°57'4 4.9
2018-Jun-16 02:23N 50°36' W 127°03'2 3.5
2018-Jun-16 01:55N 50°37' W 127°02'1 0.6
2018-Jun-15 23:47N 50°36' W 127°03'1 2.9
2018-Jun-15 23:19N 50°37' W 127°02'3 7.4
2018-Jun-15 22:57N 50°36' W 127°05'4 7.3
2018-Jun-15 22:28N 50°35' W 126°60'2 3.2
2018-Jun-15 21:49N 50°35' W 126°56'4 3.7
2018-Jun-15 20:48N 50°36' W 127°02'1 2.1
2018-Jun-15 20:26N 50°37' W 127°02'2 2.5
2018-Jun-15 19:46N 50°36' W 127°01'3 5.2
2018-Jun-15 19:09N 50°35' W 126°57'4 4.5
2018-Jun-15 18:21N 50°36' W 127°02'1 1.0
2018-Jun-15 17:20N 50°35' W 127°01'2 0.2
2018-Jun-15 05:32N 50°35' W 126°58'112.0
2018-Jun-15 05:29N 50°36' W 126°59'2 4.9
2018-Jun-15 05:00N 50°37' W 127°01'3 5.1
2018-Jun-15 04:30N 50°36' W 127°05'2 4.6
2018-Jun-15 04:00N 50°37' W 127°01'0 0.3
2018-Jun-15 02:26N 50°37' W 127°02'2 2.1
2018-Jun-15 01:20N 50°35' W 126°59'1 2.2
2018-Jun-15 00:49N 50°35' W 126°57'3 3.2
2018-Jun-14 23:46N 50°36' W 127°02'3 1.9
2018-Jun-14 22:24N 50°35' W 126°58'1 2.7
2018-Jun-14 21:51N 50°35' W 126°56'4 4.4
2018-Jun-14 20:58N 50°36' W 127°02'1 1.7
2018-Jun-14 20:30N 50°37' W 127°02'2 3.0
2018-Jun-14 19:52N 50°36' W 127°04'410.3
2018-Jun-14 19:28N 50°35' W 126°57'0 1.1
2018-Jun-14 19:00N 50°35' W 126°58'3 3.5
2018-Jun-14 18:11N 50°36' W 127°02'1 1.6
2018-Jun-14 17:43N 50°37' W 127°02'2 2.8
2018-Jun-14 17:08N 50°36' W 127°04'314.8
2018-Jun-14 16:57N 50°35' W 126°59'1 1.4
2018-Jun-14 16:10N 50°35' W 126°57'3 3.1
2018-Jun-14 15:09N 50°36' W 127°02'2 1.3
2018-Jun-14 13:52N 50°35' W 126°60'2 0.2
2018-Jun-14 05:27N 50°35' W 126°57'4 6.4
2018-Jun-14 04:51N 50°38' W 127°01'3 5.9
2018-Jun-14 04:20N 50°36' W 127°05'3 9.8
2018-Jun-14 04:01N 50°38' W 127°01'4 5.1
2018-Jun-14 03:14N 50°35' W 126°56'4 4.3
2018-Jun-14 02:19N 50°36' W 127°02'2 5.1
2018-Jun-14 02:00N 50°38' W 127°01'3 3.0
2018-Jun-14 01:08N 50°35' W 126°59'210.4
2018-Jun-14 00:56N 50°35' W 126°56'1 0.2
2018-Jun-13 21:44N 50°35' W 126°57'4 3.9
2018-Jun-13 20:49N 50°37' W 127°02'2 2.0
2018-Jun-13 19:39N 50°35' W 126°59'211.2
2018-Jun-13 19:29N 50°35' W 126°57'4 3.3
2018-Jun-13 18:22N 50°36' W 127°02'1 1.7
2018-Jun-13 17:56N 50°37' W 127°02'2 2.8
2018-Jun-13 17:24N 50°36' W 127°03'4 5.2
2018-Jun-13 16:33N 50°35' W 126°56'1 7.1
2018-Jun-13 16:28N 50°35' W 126°57'4 3.0
2018-Jun-13 15:08N 50°36' W 127°03'2 4.6
2018-Jun-13 14:44N 50°38' W 127°01'2 3.4
2018-Jun-13 14:02N 50°36' W 127°04'313.3
2018-Jun-13 13:47N 50°35' W 126°58'1 0.2
2018-Jun-13 05:38N 50°35' W 126°56'1 9.5
2018-Jun-13 05:30N 50°35' W 126°58'3 6.1
2018-Jun-13 04:59N 50°37' W 127°02'3 5.1
2018-Jun-13 04:28N 50°36' W 127°05'3 6.3
2018-Jun-13 04:00N 50°38' W 127°01'4 6.6
2018-Jun-13 03:23N 50°35' W 126°56'5 5.7
2018-Jun-13 02:34N 50°36' W 127°03'110.7
2018-Jun-13 02:28N 50°37' W 127°02'1 1.0
2018-Jun-13 01:27N 50°36' W 127°01'3 5.1
2018-Jun-13 00:49N 50°35' W 126°56'5 5.7
2018-Jun-12 23:59N 50°36' W 127°04'1 0.6
2018-Jun-12 22:38N 50°36' W 127°02'210.8
2018-Jun-12 22:24N 50°35' W 126°58'1 1.7
2018-Jun-12 21:46N 50°35' W 126°57'4 4.8
2018-Jun-12 20:57N 50°36' W 127°03'1 3.0
2018-Jun-12 20:27N 50°37' W 127°02'3 3.1
2018-Jun-12 19:31N 50°35' W 126°58'0 9.9
2018-Jun-12 19:29N 50°35' W 126°58'3 2.4
2018-Jun-12 18:10N 50°36' W 127°03'2 9.7
2018-Jun-12 17:59N 50°38' W 127°01'3 2.5
2018-Jun-12 16:42N 50°35' W 126°58'1 6.1
2018-Jun-12 16:30N 50°35' W 126°56'5 3.8
2018-Jun-12 15:14N 50°36' W 127°03'  
Track history (hours):
 
Tides and Currents Weather Stations Pressure Air Temp Water Temp Dewpoint Dewpoint Depression Visibility Wind Speed Wind Dir Waves Ship Positions

Bowen Queen

Last reported at 2018-Jun-22 15:00 UTC. Time now 2018-Jun-22 15:04 UTC.
Position N 50°38' W 127°01'.

Length 88 m; draft 4 m.

Type: Passenger vessel. MMSI: 316001232.

Date/timePositionNaut miles runAvg speedWind from/ knotsBaromVisibWave heightAir tempDewpointWater temp
2018-Jun-22 15:00N 50°38' W 127°01'4 0.4
2018-Jun-22 05:33N 50°35' W 126°56'010.0
2018-Jun-22 05:30N 50°35' W 126°57'4 7.2
2018-Jun-22 04:57N 50°38' W 127°01'3 6.5
2018-Jun-22 04:27N 50°36' W 127°05'3 6.2
2018-Jun-22 03:56N 50°38' W 127°01'2 1.0
2018-Jun-22 02:20N 50°36' W 127°02'1 2.9
2018-Jun-22 01:59N 50°37' W 127°02'3 3.9
2018-Jun-22 01:10N 50°35' W 126°58'0 0.3
2018-Jun-22 00:42N 50°35' W 126°58'3 4.4
2018-Jun-21 23:57N 50°36' W 127°03'1 1.0
2018-Jun-21 22:36N 50°36' W 127°01'1 0.9
2018-Jun-21 20:52N 50°37' W 127°02'0 0.1
2018-Jun-21 18:11N 50°37' W 127°02'0 0.2
2018-Jun-21 17:41N 50°37' W 127°02'3 3.2
2018-Jun-21 16:44N 50°35' W 126°58'0 0.0
2018-Jun-21 05:21N 50°35' W 126°57'410.2
2018-Jun-21 05:00N 50°38' W 127°01'3 6.0
2018-Jun-21 04:30N 50°36' W 127°05'3 5.9
2018-Jun-21 04:00N 50°38' W 127°01'4 7.1
2018-Jun-21 03:30N 50°35' W 126°57'3 2.8
2018-Jun-21 02:19N 50°36' W 127°02'2 4.8
2018-Jun-21 01:58N 50°38' W 127°01'2 2.9
2018-Jun-21 01:18N 50°36' W 127°02'411.5
2018-Jun-21 01:00N 50°35' W 126°56'2 0.7
2018-Jun-20 22:37N 50°35' W 126°59'1 3.0
2018-Jun-20 22:07N 50°35' W 126°56'4 4.8
2018-Jun-20 21:15N 50°36' W 127°03'2 4.9
2018-Jun-20 20:51N 50°38' W 127°01'2 3.6
2018-Jun-20 20:14N 50°36' W 127°03'414.6
2018-Jun-20 20:00N 50°35' W 126°57'4 3.3
2018-Jun-20 18:48N 50°36' W 127°04'2 3.1
2018-Jun-20 18:13N 50°37' W 127°02'1 2.1
2018-Jun-20 17:35N 50°36' W 127°02'213.7
2018-Jun-20 17:26N 50°35' W 126°59'2 3.5
2018-Jun-20 16:56N 50°35' W 126°56'4 2.3
2018-Jun-20 15:16N 50°36' W 127°02'1 1.2
2018-Jun-20 14:11N 50°36' W 127°04'312.1
2018-Jun-20 13:55N 50°36' W 126°59'1 0.2
2018-Jun-20 05:26N 50°35' W 126°57'4 7.1
2018-Jun-20 04:54N 50°38' W 127°01'3 5.7
2018-Jun-20 04:21N 50°36' W 127°05'3 9.0
2018-Jun-20 04:00N 50°38' W 127°01'4 7.4
2018-Jun-20 03:30N 50°35' W 126°57'4 2.2
2018-Jun-20 01:54N 50°37' W 127°02'2 2.7
2018-Jun-20 01:05N 50°35' W 126°59'111.5
2018-Jun-20 00:59N 50°35' W 126°57'3 2.9
2018-Jun-19 23:49N 50°36' W 127°03'2 3.6
2018-Jun-19 23:22N 50°37' W 127°02'2 2.4
2018-Jun-19 22:29N 50°36' W 126°60'2 5.2
2018-Jun-19 22:01N 50°35' W 126°56'4 3.2
2018-Jun-19 20:45N 50°38' W 127°01'2 4.2
2018-Jun-19 20:23N 50°36' W 127°02'2 2.7
2018-Jun-19 19:38N 50°35' W 126°59'2 3.2
2018-Jun-19 19:06N 50°35' W 126°56'4 4.9
2018-Jun-19 18:15N 50°36' W 127°03'1 0.2
2018-Jun-19 15:07N 50°36' W 127°02'1 7.2
2018-Jun-19 14:56N 50°38' W 127°01'3 2.8
2018-Jun-19 13:47N 50°35' W 126°58'1 4.3
2018-Jun-19 13:30N 50°35' W 126°56'0 0.0
2018-Jun-19 09:43N 50°35' W 126°56'0 0.0
2018-Jun-19 09:01N 50°35' W 126°56'0 0.0
2018-Jun-19 08:49N 50°35' W 126°56'0 0.0
2018-Jun-19 08:19N 50°35' W 126°56'0 0.0
2018-Jun-19 07:55N 50°35' W 126°56'0 0.0
2018-Jun-19 06:01N 50°35' W 126°56'0 0.0
2018-Jun-19 05:49N 50°35' W 126°56'0 0.3
2018-Jun-19 05:27N 50°35' W 126°56'4 8.9
2018-Jun-19 05:01N 50°38' W 127°01'3 4.6
2018-Jun-19 04:19N 50°36' W 127°05'3 9.7
2018-Jun-19 04:00N 50°38' W 127°01'3 6.8
2018-Jun-19 03:30N 50°35' W 126°58'4 3.2
2018-Jun-19 02:23N 50°36' W 127°03'2 5.1
2018-Jun-19 01:58N 50°38' W 127°01'2 2.7
2018-Jun-19 01:08N 50°36' W 126°60'111.0
2018-Jun-19 01:00N 50°35' W 126°57'4 3.3
2018-Jun-18 23:50N 50°36' W 127°04'2 5.1
2018-Jun-18 23:23N 50°38' W 127°01'2 2.4
2018-Jun-18 22:32N 50°36' W 127°01'011.9
2018-Jun-18 22:30N 50°36' W 127°00'3 5.3
2018-Jun-18 22:00N 50°35' W 126°56'4 3.8
2018-Jun-18 20:55N 50°36' W 127°02'3 2.5
2018-Jun-18 19:38N 50°35' W 126°58'1 5.7
2018-Jun-18 19:27N 50°35' W 126°56'3 5.7
2018-Jun-18 18:59N 50°35' W 127°00'2 2.2
2018-Jun-18 18:18N 50°36' W 127°02'2 3.7
2018-Jun-18 17:51N 50°38' W 127°01'2 3.0
2018-Jun-18 17:04N 50°35' W 126°60'114.7
2018-Jun-18 16:59N 50°35' W 126°58'1 1.4
2018-Jun-18 16:30N 50°35' W 126°57'4 2.9
2018-Jun-18 15:11N 50°36' W 127°03'2 5.5
2018-Jun-18 14:50N 50°38' W 127°01'2 3.3
2018-Jun-18 14:08N 50°36' W 127°03'312.1
2018-Jun-18 13:52N 50°35' W 126°59'2 0.2
2018-Jun-18 05:07N 50°37' W 127°01'1 0.9
2018-Jun-18 04:00N 50°38' W 127°01'4 7.1
2018-Jun-18 03:26N 50°35' W 126°56'4 3.5
2018-Jun-18 02:20N 50°36' W 127°02'0 0.3
2018-Jun-18 01:55N 50°36' W 127°02'0 0.2
2018-Jun-17 23:49N 50°36' W 127°03'2 6.0
2018-Jun-17 23:30N 50°38' W 127°01'2 2.4
2018-Jun-17 22:41N 50°36' W 127°01'211.8
2018-Jun-17 22:29N 50°35' W 126°58'1 1.8
2018-Jun-17 21:52N 50°35' W 126°56'5 5.2
2018-Jun-17 20:59N 50°36' W 127°03'0 0.4
2018-Jun-17 19:49N 50°36' W 127°03'1 0.4
2018-Jun-17 18:14N 50°36' W 127°04'210.2
2018-Jun-17 18:00N 50°38' W 127°01'2 1.8
2018-Jun-17 16:49N 50°36' W 127°00'2 0.7
2018-Jun-17 14:25N 50°37' W 127°02'1 2.6
2018-Jun-17 13:59N 50°36' W 127°00'3 3.6
2018-Jun-17 13:08N 50°35' W 126°56'0 0.0
2018-Jun-17 08:09N 50°35' W 126°56'0 0.0
2018-Jun-17 07:57N 50°35' W 126°56'0 0.0
2018-Jun-17 05:57N 50°35' W 126°56'1 2.9
2018-Jun-17 05:29N 50°35' W 126°58'3 6.2
2018-Jun-17 04:59N 50°38' W 127°01'1 1.9
2018-Jun-17 04:13N 50°36' W 127°02'1 2.7
2018-Jun-17 03:53N 50°37' W 127°01'4 6.9
2018-Jun-17 03:19N 50°35' W 126°56'4 4.6
2018-Jun-17 02:24N 50°36' W 127°03'2 4.0
2018-Jun-17 02:00N 50°37' W 127°02'4 0.5
2018-Jun-16 19:28N 50°35' W 126°57'1 1.3
2018-Jun-16 18:59N 50°35' W 126°58'3 3.1
2018-Jun-16 18:06N 50°37' W 127°02'1 1.4
2018-Jun-16 17:40N 50°37' W 127°02'3 3.5
2018-Jun-16 16:52N 50°35' W 126°58'1 1.4
2018-Jun-16 16:23N 50°35' W 126°57'3 2.5
2018-Jun-16 15:10N 50°36' W 127°02'2 1.9
2018-Jun-16 13:52N 50°35' W 126°58'1 0.2
2018-Jun-16 05:29N 50°35' W 126°56'4 6.4
2018-Jun-16 04:52N 50°38' W 127°01'3 5.9
2018-Jun-16 04:21N 50°36' W 127°05'3 9.2
2018-Jun-16 04:00N 50°38' W 127°01'4 4.7
2018-Jun-16 03:12N 50°35' W 126°57'4 4.9
2018-Jun-16 02:23N 50°36' W 127°03'2 3.5
2018-Jun-16 01:55N 50°37' W 127°02'1 0.6
2018-Jun-15 23:47N 50°36' W 127°03'1 2.9
2018-Jun-15 23:19N 50°37' W 127°02'3 7.4
2018-Jun-15 22:57N 50°36' W 127°05'4 7.3
2018-Jun-15 22:28N 50°35' W 126°60'2 3.2
2018-Jun-15 21:49N 50°35' W 126°56'4 3.7
2018-Jun-15 20:48N 50°36' W 127°02'1 2.1
2018-Jun-15 20:26N 50°37' W 127°02'2 2.5
2018-Jun-15 19:46N 50°36' W 127°01'3 5.2
2018-Jun-15 19:09N 50°35' W 126°57'4 4.5
2018-Jun-15 18:21N 50°36' W 127°02'1 1.0
2018-Jun-15 17:20N 50°35' W 127°01'2 0.2
2018-Jun-15 05:32N 50°35' W 126°58'112.0
2018-Jun-15 05:29N 50°36' W 126°59'2 4.9
2018-Jun-15 05:00N 50°37' W 127°01'3 5.1
2018-Jun-15 04:30N 50°36' W 127°05'2 4.6
2018-Jun-15 04:00N 50°37' W 127°01'0 0.3
2018-Jun-15 02:26N 50°37' W 127°02'2 2.1
2018-Jun-15 01:20N 50°35' W 126°59'1 2.2
2018-Jun-15 00:49N 50°35' W 126°57'3 3.2
2018-Jun-14 23:46N 50°36' W 127°02'3 1.9
2018-Jun-14 22:24N 50°35' W 126°58'1 2.7
2018-Jun-14 21:51N 50°35' W 126°56'4 4.4
2018-Jun-14 20:58N 50°36' W 127°02'1 1.7
2018-Jun-14 20:30N 50°37' W 127°02'2 3.0
2018-Jun-14 19:52N 50°36' W 127°04'410.3
2018-Jun-14 19:28N 50°35' W 126°57'0 1.1
2018-Jun-14 19:00N 50°35' W 126°58'3 3.5
2018-Jun-14 18:11N 50°36' W 127°02'1 1.6
2018-Jun-14 17:43N 50°37' W 127°02'2 2.8
2018-Jun-14 17:08N 50°36' W 127°04'314.8
2018-Jun-14 16:57N 50°35' W 126°59'1 1.4
2018-Jun-14 16:10N 50°35' W 126°57'3 3.1
2018-Jun-14 15:09N 50°36' W 127°02'2 1.3
2018-Jun-14 13:52N 50°35' W 126°60'2 0.2
2018-Jun-14 05:27N 50°35' W 126°57'4 6.4
2018-Jun-14 04:51N 50°38' W 127°01'3 5.9
2018-Jun-14 04:20N 50°36' W 127°05'3 9.8
2018-Jun-14 04:01N 50°38' W 127°01'4 5.1
2018-Jun-14 03:14N 50°35' W 126°56'4 4.3
2018-Jun-14 02:19N 50°36' W 127°02'2 5.1
2018-Jun-14 02:00N 50°38' W 127°01'3 3.0
2018-Jun-14 01:08N 50°35' W 126°59'210.4
2018-Jun-14 00:56N 50°35' W 126°56'1 0.2
2018-Jun-13 21:44N 50°35' W 126°57'4 3.9
2018-Jun-13 20:49N 50°37' W 127°02'2 2.0
2018-Jun-13 19:39N 50°35' W 126°59'211.2
2018-Jun-13 19:29N 50°35' W 126°57'4 3.3
2018-Jun-13 18:22N 50°36' W 127°02'1 1.7
2018-Jun-13 17:56N 50°37' W 127°02'2 2.8
2018-Jun-13 17:24N 50°36' W 127°03'4 5.2
2018-Jun-13 16:33N 50°35' W 126°56'1 7.1
2018-Jun-13 16:28N 50°35' W 126°57'4 3.0
2018-Jun-13 15:08N 50°36' W 127°03'2 4.6
2018-Jun-13 14:44N 50°38' W 127°01'2 3.4
2018-Jun-13 14:02N 50°36' W 127°04'313.3
2018-Jun-13 13:47N 50°35' W 126°58'1 0.2
2018-Jun-13 05:38N 50°35' W 126°56'1 9.5
2018-Jun-13 05:30N 50°35' W 126°58'3 6.1
2018-Jun-13 04:59N 50°37' W 127°02'3 5.1
2018-Jun-13 04:28N 50°36' W 127°05'3 6.3
2018-Jun-13 04:00N 50°38' W 127°01'4 6.6
2018-Jun-13 03:23N 50°35' W 126°56'5 5.7
2018-Jun-13 02:34N 50°36' W 127°03'110.7
2018-Jun-13 02:28N 50°37' W 127°02'1 1.0
2018-Jun-13 01:27N 50°36' W 127°01'3 5.1
2018-Jun-13 00:49N 50°35' W 126°56'5 5.7
2018-Jun-12 23:59N 50°36' W 127°04'1 0.6
2018-Jun-12 22:38N 50°36' W 127°02'210.8
2018-Jun-12 22:24N 50°35' W 126°58'1 1.7
2018-Jun-12 21:46N 50°35' W 126°57'4 4.8
2018-Jun-12 20:57N 50°36' W 127°03'1 3.0
2018-Jun-12 20:27N 50°37' W 127°02'3 3.1
2018-Jun-12 19:31N 50°35' W 126°58'0 9.9
2018-Jun-12 19:29N 50°35' W 126°58'3 2.4
2018-Jun-12 18:10N 50°36' W 127°03'2 9.7
2018-Jun-12 17:59N 50°38' W 127°01'3 2.5
2018-Jun-12 16:42N 50°35' W 126°58'1 6.1
2018-Jun-12 16:30N 50°35' W 126°56'5 3.8
2018-Jun-12 15:14N 50°36' W 127°03'  

Dump ship's entire track history